Time;durP1;ratioP1;P1;durP2;ratioP2;P2;SDS_P1;SDS_P2;PMS_P1;PMS_P2;Temp;Humidity;BMP_temperature;BMP_pressure;BME280_temperature;BME280_humidity;BME280_pressure;Samples;Min_cycle;Max_cycle;Signal;HPM_P1;HPM_P2
2020/12/15 00:01:55;;;;;;;326.65;293.67;;;;;;;;;;5034940;28;20034;-69
2020/12/15 00:04:21;;;;;;;359.45;325.15;;;;;;;;;;5029872;28;20097;-69
2020/12/15 00:06:47;;;;;;;302.38;270.42;;;;;;;;;;5038382;28;20117;-69
2020/12/15 00:09:13;;;;;;;366.58;331.95;;;;;;;;;;5032317;28;20029;-68
2020/12/15 00:11:39;;;;;;;377.35;342.05;;;;;;;;;;5044460;28;20037;-68
2020/12/15 00:14:05;;;;;;;301.70;269.75;;;;;;;;;;5033596;28;20528;-68
2020/12/15 00:16:31;;;;;;;323.02;290.13;;;;;;;;;;5038968;28;20488;-67
2020/12/15 00:18:57;;;;;;;363.98;329.42;;;;;;;;;;5029544;28;20087;-68
2020/12/15 00:21:25;;;;;;;351.85;317.63;;;;;;;;;;5034580;28;20389;-69
2020/12/15 00:23:51;;;;;;;;;;;;;;;;;;5032740;28;20486;-67
2020/12/15 00:26:17;;;;;;;328.02;295.20;;;;;;;;;;5038134;28;19909;-68
2020/12/15 00:28:44;;;;;;;331.02;297.73;;;;;;;;;;5030228;28;20026;-69
2020/12/15 00:31:10;;;;;;;333.17;299.98;;;;;;;;;;5035898;28;20604;-68
2020/12/15 00:33:36;;;;;;;394.67;359.10;;;;;;;;;;5031928;28;20359;-71
2020/12/15 00:36:02;;;;;;;377.25;342.30;;;;;;;;;;5034292;28;20029;-68
2020/12/15 00:38:28;;;;;;;315.50;283.02;;;;;;;;;;5030043;28;20038;-68
2020/12/15 00:40:54;;;;;;;302.30;270.05;;;;;;;;;;5034418;28;20083;-68
2020/12/15 00:43:20;;;;;;;371.33;336.48;;;;;;;;;;5031980;28;20044;-68
2020/12/15 00:45:46;;;;;;;324.30;291.55;;;;;;;;;;5032575;28;20018;-69
2020/12/15 00:48:12;;;;;;;346.33;312.05;;;;;;;;;;5025400;28;20030;-68
2020/12/15 00:50:38;;;;;;;326.52;293.55;;;;;;;;;;5032122;28;20053;-68
2020/12/15 00:53:05;;;;;;;352.90;318.35;;;;;;;;;;5021313;28;20026;-68
2020/12/15 00:55:31;;;;;;;371.60;336.60;;;;;;;;;;5025941;28;20125;-69
2020/12/15 00:57:57;;;;;;;321.80;288.83;;;;;;;;;;5031468;28;20037;-68
2020/12/15 01:00:23;;;;;;;385.02;349.65;;;;;;;;;;5033568;28;20108;-69
2020/12/15 01:02:49;;;;;;;367.65;332.95;;;;;;;;;;5033655;28;20474;-68
2020/12/15 01:05:15;;;;;;;337.42;303.65;;;;;;;;;;5035465;28;20025;-68
2020/12/15 01:07:41;;;;;;;330.38;297.17;;;;;;;;;;5044203;28;20338;-68
2020/12/15 01:10:07;;;;;;;340.17;306.23;;;;;;;;;;5031781;28;20040;-68
2020/12/15 01:12:33;;;;;;;348.40;314.15;;;;;;;;;;5030610;28;20467;-68
2020/12/15 01:15:00;;;;;;;359.25;324.98;;;;;;;;;;5034711;28;20054;-70
2020/12/15 01:17:26;;;;;;;354.70;320.55;;;;;;;;;;5036941;28;20076;-70
2020/12/15 01:19:52;;;;;;;359.95;325.55;;;;;;;;;;5031750;28;20105;-70
2020/12/15 01:22:18;;;;;;;370.73;335.80;;;;;;;;;;5034852;28;20033;-69
2020/12/15 01:24:44;;;;;;;330.13;296.67;;;;;;;;;;5029038;28;20397;-69
2020/12/15 01:27:10;;;;;;;306.40;274.10;;;;;;;;;;5035712;28;20030;-69
2020/12/15 01:29:36;;;;;;;294.77;262.98;;;;;;;;;;5027399;28;20029;-69
2020/12/15 01:32:03;;;;;;;317.35;284.52;;;;;;;;;;5010420;28;20091;-68
2020/12/15 01:34:29;;;;;;;349.52;315.00;;;;;;;;;;5012436;28;20033;-69
2020/12/15 01:36:56;;;;;;;357.67;322.95;;;;;;;;;;5011834;28;20054;-69
2020/12/15 01:39:22;;;;;;;329.47;296.00;;;;;;;;;;5011570;28;20097;-67
2020/12/15 01:41:48;;;;;;;353.63;319.20;;;;;;;;;;5013335;28;20025;-67
2020/12/15 01:44:14;;;;;;;356.92;322.30;;;;;;;;;;5013234;28;20273;-67
2020/12/15 01:46:40;;;;;;;388.98;353.00;;;;;;;;;;5013067;28;20490;-67
2020/12/15 01:49:07;;;;;;;359.23;324.70;;;;;;;;;;5011310;28;20029;-68
2020/12/15 01:51:33;;;;;;;372.88;337.55;;;;;;;;;;5012006;28;20036;-67
2020/12/15 01:53:59;;;;;;;403.05;366.65;;;;;;;;;;5009174;28;20037;-68
2020/12/15 01:56:26;;;;;;;374.33;339.15;;;;;;;;;;5012395;28;20526;-67
2020/12/15 01:58:56;;;;;;;335.25;301.70;;;;;;;;;;5011031;28;20641;-67
2020/12/15 02:01:22;;;;;;;335.00;301.40;;;;;;;;;;5011518;28;20064;-67
2020/12/15 02:03:49;;;;;;;381.45;346.15;;;;;;;;;;5011509;28;20441;-67
2020/12/15 02:06:15;;;;;;;332.35;298.83;;;;;;;;;;5013062;28;20040;-67
2020/12/15 02:08:42;;;;;;;394.23;358.10;;;;;;;;;;5012073;28;20033;-67
2020/12/15 02:11:09;;;;;;;387.70;351.92;;;;;;;;;;5011995;28;20112;-67
2020/12/15 02:13:35;;;;;;;329.37;296.20;;;;;;;;;;5011509;28;20447;-67
2020/12/15 02:16:01;;;;;;;337.17;303.55;;;;;;;;;;5012223;28;20114;-67
2020/12/15 02:18:29;;;;;;;335.92;302.30;;;;;;;;;;5011705;28;20473;-67
2020/12/15 02:20:55;;;;;;;338.50;304.73;;;;;;;;;;5011798;28;20048;-68
2020/12/15 02:23:21;;;;;;;330.27;296.85;;;;;;;;;;5012205;28;20034;-68
2020/12/15 02:25:47;;;;;;;346.23;312.23;;;;;;;;;;5011417;28;20034;-67
2020/12/15 02:28:13;;;;;;;357.23;323.05;;;;;;;;;;5012688;28;20038;-67
2020/12/15 02:30:39;;;;;;;374.17;339.00;;;;;;;;;;5012009;28;20173;-67
2020/12/15 02:33:06;;;;;;;374.50;339.52;;;;;;;;;;5011612;28;20060;-67
2020/12/15 02:35:32;;;;;;;369.25;334.27;;;;;;;;;;5012362;28;20041;-68
2020/12/15 02:37:58;;;;;;;320.00;287.35;;;;;;;;;;5012010;28;20053;-67
2020/12/15 02:40:24;;;;;;;348.48;314.38;;;;;;;;;;5018140;28;20060;-67
2020/12/15 02:42:50;;;;;;;371.08;336.08;;;;;;;;;;5012219;28;20032;-67
2020/12/15 02:45:16;;;;;;;324.42;291.42;;;;;;;;;;5010835;28;20441;-67
2020/12/15 02:47:42;;;;;;;402.27;365.73;;;;;;;;;;5010143;28;20026;-67
2020/12/15 02:50:09;;;;;;;356.35;322.20;;;;;;;;;;5011566;28;20030;-67
2020/12/15 02:52:35;;;;;;;421.20;384.42;;;;;;;;;;5015694;28;20037;-68
2020/12/15 02:55:01;;;;;;;383.27;347.77;;;;;;;;;;5019349;28;20036;-68
2020/12/15 02:57:27;;;;;;;357.73;323.30;;;;;;;;;;5036232;28;20063;-68
2020/12/15 02:59:53;;;;;;;337.85;304.17;;;;;;;;;;5029986;28;20053;-68
2020/12/15 03:02:20;;;;;;;370.92;335.95;;;;;;;;;;5031861;28;20033;-69
2020/12/15 03:04:46;;;;;;;396.75;361.00;;;;;;;;;;5033008;28;20036;-69
2020/12/15 03:07:12;;;;;;;384.23;348.80;;;;;;;;;;5036050;28;20060;-69
2020/12/15 03:09:38;;;;;;;358.17;323.67;;;;;;;;;;5034170;28;20482;-68
2020/12/15 03:12:04;;;;;;;358.27;323.45;;;;;;;;;;5030443;28;20052;-68
2020/12/15 03:14:30;;;;;;;416.13;379.05;;;;;;;;;;5032087;28;20560;-68
2020/12/15 03:16:56;;;;;;;354.48;320.25;;;;;;;;;;5037930;28;20037;-69
2020/12/15 03:19:22;;;;;;;378.17;342.83;;;;;;;;;;5035855;28;20385;-69
2020/12/15 03:21:48;;;;;;;425.50;388.33;;;;;;;;;;5046680;28;20036;-68
2020/12/15 03:24:14;;;;;;;373.48;338.45;;;;;;;;;;5033373;28;20029;-69
2020/12/15 03:26:40;;;;;;;405.98;369.55;;;;;;;;;;5035665;28;20139;-69
2020/12/15 03:29:06;;;;;;;341.33;307.55;;;;;;;;;;5033905;28;20025;-68
2020/12/15 03:31:32;;;;;;;310.85;278.45;;;;;;;;;;5038011;28;20025;-69
2020/12/15 03:33:59;;;;;;;327.70;294.38;;;;;;;;;;5035407;28;20584;-69
2020/12/15 03:36:25;;;;;;;358.92;324.45;;;;;;;;;;5040265;28;20025;-69
2020/12/15 03:38:51;;;;;;;323.92;291.05;;;;;;;;;;5035384;28;20551;-68
2020/12/15 03:41:17;;;;;;;380.63;345.27;;;;;;;;;;5037947;28;20018;-68
2020/12/15 03:43:43;;;;;;;364.52;329.60;;;;;;;;;;5032016;28;20033;-68
2020/12/15 03:46:09;;;;;;;362.48;327.75;;;;;;;;;;5031118;28;20049;-67
2020/12/15 03:48:35;;;;;;;377.05;341.90;;;;;;;;;;5032141;28;20056;-68
2020/12/15 03:51:01;;;;;;;382.38;346.83;;;;;;;;;;5031775;28;20033;-68
2020/12/15 03:53:27;;;;;;;370.90;335.75;;;;;;;;;;5035287;28;20037;-68
2020/12/15 03:55:53;;;;;;;341.98;308.52;;;;;;;;;;5032135;28;20027;-68
2020/12/15 03:58:19;;;;;;;413.10;376.33;;;;;;;;;;5031622;28;20124;-68
2020/12/15 04:00:45;;;;;;;366.42;331.73;;;;;;;;;;5034536;28;20748;-68
2020/12/15 04:03:11;;;;;;;342.38;308.42;;;;;;;;;;5033120;28;20129;-68
2020/12/15 04:05:37;;;;;;;347.05;313.13;;;;;;;;;;5043864;28;20025;-68
2020/12/15 04:08:04;;;;;;;355.50;321.10;;;;;;;;;;5050795;28;20033;-68
2020/12/15 04:10:30;;;;;;;351.70;317.45;;;;;;;;;;5035079;28;20025;-68
2020/12/15 04:12:56;;;;;;;398.58;362.45;;;;;;;;;;5025811;28;20105;-68
2020/12/15 04:15:23;;;;;;;339.17;305.37;;;;;;;;;;5037817;28;20408;-68
2020/12/15 04:17:49;;;;;;;340.40;306.90;;;;;;;;;;5034118;28;20093;-68
2020/12/15 04:20:15;;;;;;;365.52;330.88;;;;;;;;;;5037700;28;20035;-68
2020/12/15 04:22:41;;;;;;;405.77;369.42;;;;;;;;;;5048022;28;20039;-68
2020/12/15 04:25:07;;;;;;;366.80;331.80;;;;;;;;;;5030698;28;20025;-68
2020/12/15 04:27:33;;;;;;;344.92;310.98;;;;;;;;;;5032949;28;20033;-68
2020/12/15 04:29:59;;;;;;;369.95;335.35;;;;;;;;;;5031912;28;20032;-68
2020/12/15 04:32:25;;;;;;;392.15;356.35;;;;;;;;;;5032677;28;20041;-68
2020/12/15 04:34:52;;;;;;;398.45;362.42;;;;;;;;;;5033844;28;20021;-68
2020/12/15 04:37:18;;;;;;;276.53;240.27;;;;;;;;;;5044109;28;20049;-68
2020/12/15 04:39:44;;;;;;;345.13;311.30;;;;;;;;;;5029068;28;20083;-67
2020/12/15 04:42:10;;;;;;;393.58;357.92;;;;;;;;;;5035777;28;20039;-68
2020/12/15 04:44:36;;;;;;;397.70;361.80;;;;;;;;;;5029589;28;20543;-68
2020/12/15 04:47:11;;;;;;;316.05;283.27;;;;;;;;;;5037508;28;20037;-67
2020/12/15 04:49:48;;;;;;;328.05;294.95;;;;;;;;;;5026323;28;20491;-68
2020/12/15 04:52:21;;;;;;;283.65;251.55;;;;;;;;;;5034708;28;20080;-68
2020/12/15 04:54:49;;;;;;;283.73;252.70;;;;;;;;;;5031334;28;20030;-68
2020/12/15 04:57:18;;;;;;;329.75;296.58;;;;;;;;;;5037986;28;20045;-68
2020/12/15 04:59:44;;;;;;;350.88;316.85;;;;;;;;;;5030916;28;20030;-68
2020/12/15 05:02:10;;;;;;;310.90;278.58;;;;;;;;;;5038846;28;20044;-68
2020/12/15 05:04:40;;;;;;;363.27;328.75;;;;;;;;;;5030739;28;20029;-69
2020/12/15 05:07:06;;;;;;;329.10;295.88;;;;;;;;;;5034199;28;20043;-69
2020/12/15 05:09:34;;;;;;;337.33;303.90;;;;;;;;;;5031119;28;20095;-68
2020/12/15 05:12:00;;;;;;;362.58;328.10;;;;;;;;;;5038697;28;20076;-67
2020/12/15 05:14:26;;;;;;;344.08;310.42;;;;;;;;;;5029253;28;20481;-69
2020/12/15 05:16:53;;;;;;;355.25;321.17;;;;;;;;;;5035255;28;20049;-69
2020/12/15 05:19:19;;;;;;;339.20;305.85;;;;;;;;;;5031056;28;20086;-69
2020/12/15 05:21:58;;;;;;;369.10;334.38;;;;;;;;;;5033567;28;20096;-69
2020/12/15 05:24:28;;;;;;;306.70;274.58;;;;;;;;;;5031371;28;20036;-69
2020/12/15 05:26:55;;;;;;;328.48;295.55;;;;;;;;;;5043723;28;20895;-69
2020/12/15 05:29:21;;;;;;;358.40;324.33;;;;;;;;;;5038232;28;20026;-69
2020/12/15 05:31:48;;;;;;;312.73;280.20;;;;;;;;;;5033551;28;20038;-69
2020/12/15 05:34:22;;;;;;;327.05;294.08;;;;;;;;;;5036063;28;20552;-69
2020/12/15 05:36:49;;;;;;;343.35;309.75;;;;;;;;;;5025973;28;20409;-69
2020/12/15 05:39:15;;;;;;;339.58;306.20;;;;;;;;;;5022664;28;20108;-69
2020/12/15 05:41:41;;;;;;;301.25;269.25;;;;;;;;;;5029685;28;20482;-69
2020/12/15 05:44:07;;;;;;;339.45;305.92;;;;;;;;;;5030649;28;20525;-69
2020/12/15 05:46:34;;;;;;;298.17;266.52;;;;;;;;;;5047138;28;20028;-69
2020/12/15 05:49:07;;;;;;;383.03;348.03;;;;;;;;;;5025768;28;20415;-69
2020/12/15 05:51:43;;;;;;;336.40;302.85;;;;;;;;;;5043698;28;20033;-69
2020/12/15 05:54:12;;;;;;;337.55;303.85;;;;;;;;;;5024116;28;20037;-69
2020/12/15 05:56:39;;;;;;;346.40;312.33;;;;;;;;;;5040028;28;20025;-68
2020/12/15 05:59:17;;;;;;;385.10;349.53;;;;;;;;;;5030476;28;20027;-69
2020/12/15 06:01:43;;;;;;;322.25;289.50;;;;;;;;;;5045773;28;20469;-69
2020/12/15 06:04:10;;;;;;;332.88;299.48;;;;;;;;;;5031583;28;20033;-69
2020/12/15 06:06:37;;;;;;;332.38;299.30;;;;;;;;;;5042807;28;20035;-69
2020/12/15 06:09:03;;;;;;;361.73;327.35;;;;;;;;;;5033554;28;20033;-69
2020/12/15 06:11:33;;;;;;;278.05;244.93;;;;;;;;;;5040810;28;20033;-69
2020/12/15 06:13:59;;;;;;;350.25;316.52;;;;;;;;;;5033193;28;20032;-69
2020/12/15 06:16:25;;;;;;;352.30;318.60;;;;;;;;;;5039457;28;20108;-69
2020/12/15 06:18:51;;;;;;;317.63;285.15;;;;;;;;;;5031046;28;20036;-69
2020/12/15 06:21:17;;;;;;;370.40;335.67;;;;;;;;;;5035105;28;20032;-69
2020/12/15 06:23:44;;;;;;;365.42;330.98;;;;;;;;;;5030506;28;20466;-69
2020/12/15 06:26:10;;;;;;;288.50;257.20;;;;;;;;;;5035089;28;20489;-69
2020/12/15 06:28:36;;;;;;;332.73;299.42;;;;;;;;;;5032605;28;20025;-68
2020/12/15 06:31:02;;;;;;;325.70;292.67;;;;;;;;;;5032501;28;20044;-68
2020/12/15 06:33:34;;;;;;;287.38;255.13;;;;;;;;;;5036270;28;20079;-69
2020/12/15 06:36:01;;;;;;;316.20;283.73;;;;;;;;;;5030888;28;20065;-69
2020/12/15 06:38:27;;;;;;;364.42;330.00;;;;;;;;;;5033981;28;20045;-68
2020/12/15 06:40:53;;;;;;;306.83;274.70;;;;;;;;;;5035966;28;20033;-69
2020/12/15 06:43:26;;;;;;;288.75;257.52;;;;;;;;;;5034021;28;20030;-68
2020/12/15 06:46:02;;;;;;;341.27;308.08;;;;;;;;;;5024721;28;20032;-68
2020/12/15 06:48:28;;;;;;;300.35;268.67;;;;;;;;;;5026799;28;20441;-68
2020/12/15 06:50:54;;;;;;;296.92;265.30;;;;;;;;;;5027491;28;20026;-69
2020/12/15 06:53:20;;;;;;;368.92;334.13;;;;;;;;;;5030456;28;20036;-69
2020/12/15 06:55:57;;;;;;;303.42;271.67;;;;;;;;;;5034394;28;20025;-69
2020/12/15 06:58:23;;;;;;;330.05;297.13;;;;;;;;;;5032986;28;20038;-68
2020/12/15 07:00:49;;;;;;;323.92;290.95;;;;;;;;;;5036175;28;20018;-68
2020/12/15 07:03:17;;;;;;;344.45;310.63;;;;;;;;;;5032896;28;20441;-67
2020/12/15 07:05:42;;;;;;;;;;;;;;;;;;5044435;28;20108;-69
2020/12/15 07:08:11;;;;;;;345.02;311.17;;;;;;;;;;5043867;28;20408;-67
2020/12/15 07:10:41;;;;;;;351.05;317.20;;;;;;;;;;5034840;28;20021;-68
2020/12/15 07:13:07;;;;;;;306.45;274.08;;;;;;;;;;5032337;28;20025;-68
2020/12/15 07:15:34;;;;;;;316.02;283.23;;;;;;;;;;5025442;28;20026;-69
2020/12/15 07:18:01;;;;;;;358.13;323.90;;;;;;;;;;5028695;28;20030;-69
2020/12/15 07:20:27;;;;;;;313.50;281.10;;;;;;;;;;5033236;28;20029;-69
2020/12/15 07:22:54;;;;;;;338.52;305.33;;;;;;;;;;5034465;28;20033;-68
2020/12/15 07:25:20;;;;;;;346.90;313.27;;;;;;;;;;5033833;28;20025;-68
2020/12/15 07:27:47;;;;;;;298.20;266.63;;;;;;;;;;5035748;28;20297;-69
2020/12/15 07:30:17;;;;;;;310.77;278.42;;;;;;;;;;5033030;28;20162;-68
2020/12/15 07:32:44;;;;;;;353.02;319.23;;;;;;;;;;5036075;28;20030;-68
2020/12/15 07:35:13;;;;;;;330.65;297.77;;;;;;;;;;5033650;28;20045;-68
2020/12/15 07:37:39;;;;;;;338.85;305.48;;;;;;;;;;5038036;28;20041;-68
2020/12/15 07:40:06;;;;;;;299.05;266.92;;;;;;;;;;5031952;28;20025;-68
2020/12/15 07:42:32;;;;;;;324.75;291.90;;;;;;;;;;5035759;28;20112;-68
2020/12/15 07:45:00;;;;;;;291.42;259.95;;;;;;;;;;5031425;28;20462;-68
2020/12/15 07:47:26;;;;;;;317.35;284.67;;;;;;;;;;5033285;28;20060;-68
2020/12/15 07:49:54;;;;;;;348.65;314.80;;;;;;;;;;5027211;28;20502;-68
2020/12/15 07:52:33;;;;;;;305.30;273.45;;;;;;;;;;5032853;28;20049;-69
2020/12/15 07:55:03;;;;;;;330.98;297.92;;;;;;;;;;5028120;28;20022;-69
2020/12/15 07:57:31;;;;;;;358.30;324.17;;;;;;;;;;5038206;28;20140;-69
2020/12/15 07:59:59;;;;;;;330.42;297.63;;;;;;;;;;5031821;28;20083;-68
2020/12/15 08:02:25;;;;;;;327.95;294.98;;;;;;;;;;5042798;28;20040;-68
2020/12/15 08:04:51;;;;;;;280.17;245.50;;;;;;;;;;5030428;28;20390;-68
2020/12/15 08:07:17;;;;;;;278.90;244.48;;;;;;;;;;5034066;28;20029;-68
2020/12/15 08:09:48;;;;;;;304.73;272.70;;;;;;;;;;5031217;28;20046;-68
2020/12/15 08:12:14;;;;;;;274.23;240.20;;;;;;;;;;5032090;28;20045;-68
2020/12/15 08:14:45;;;;;;;331.40;298.23;;;;;;;;;;5033587;28;20048;-69
2020/12/15 08:17:14;;;;;;;346.75;312.83;;;;;;;;;;5038025;28;20474;-69
2020/12/15 08:19:41;;;;;;;366.50;332.13;;;;;;;;;;5031661;28;20022;-70
2020/12/15 08:22:07;;;;;;;302.50;270.70;;;;;;;;;;5042599;28;20042;-70
2020/12/15 08:24:36;;;;;;;326.02;293.13;;;;;;;;;;5032966;28;20036;-69
2020/12/15 08:27:02;;;;;;;346.98;313.20;;;;;;;;;;5034692;28;20433;-70
2020/12/15 08:29:28;;;;;;;331.25;298.30;;;;;;;;;;5032037;28;20042;-69
2020/12/15 08:31:54;;;;;;;314.95;282.42;;;;;;;;;;5035256;28;20512;-70
2020/12/15 08:34:21;;;;;;;278.45;243.45;;;;;;;;;;5032081;28;20026;-69
2020/12/15 08:36:48;;;;;;;316.55;284.02;;;;;;;;;;5032510;28;20067;-69
2020/12/15 08:39:18;;;;;;;357.67;323.55;;;;;;;;;;5032629;28;20417;-68
2020/12/15 08:41:54;;;;;;;302.55;270.75;;;;;;;;;;5034057;28;20029;-69
2020/12/15 08:44:21;;;;;;;400.63;364.88;;;;;;;;;;5029672;28;20386;-70
2020/12/15 08:46:47;;;;;;;307.57;275.33;;;;;;;;;;5035904;28;20080;-70
2020/12/15 08:49:14;;;;;;;317.85;285.25;;;;;;;;;;5027262;28;20026;-69
2020/12/15 08:51:40;;;;;;;334.23;300.65;;;;;;;;;;5029711;28;20479;-69
2020/12/15 08:54:09;;;;;;;268.65;223.23;;;;;;;;;;5019660;28;20076;-69
2020/12/15 08:56:35;;;;;;;265.45;222.30;;;;;;;;;;5029348;28;20052;-69
2020/12/15 08:59:11;;;;;;;358.73;324.50;;;;;;;;;;5039151;28;20095;-69
2020/12/15 09:01:37;;;;;;;324.83;291.75;;;;;;;;;;5034186;28;20131;-70
2020/12/15 09:04:03;;;;;;;360.45;326.02;;;;;;;;;;5037497;28;20030;-70
2020/12/15 09:06:33;;;;;;;331.23;297.83;;;;;;;;;;5033002;28;20036;-69
2020/12/15 09:08:59;;;;;;;358.83;324.55;;;;;;;;;;5031430;28;20029;-69
2020/12/15 09:11:25;;;;;;;343.30;309.58;;;;;;;;;;5026391;28;20021;-70
2020/12/15 09:13:55;;;;;;;328.37;295.33;;;;;;;;;;5033121;28;20042;-69
2020/12/15 09:16:33;;;;;;;357.23;322.63;;;;;;;;;;5041115;28;20037;-69
2020/12/15 09:19:10;;;;;;;305.83;273.52;;;;;;;;;;5031209;28;20053;-69
2020/12/15 09:21:35;;;;;;;;;;;;;;;;;;5040691;28;20087;-69
2020/12/15 09:24:01;;;;;;;307.95;275.77;;;;;;;;;;5026918;28;19917;-68
2020/12/15 09:26:27;;;;;;;313.48;280.92;;;;;;;;;;5034394;28;20084;-69
2020/12/15 09:28:53;;;;;;;363.55;329.13;;;;;;;;;;5032421;28;20029;-69
2020/12/15 09:31:20;;;;;;;358.10;323.80;;;;;;;;;;5032594;28;20043;-70
2020/12/15 09:33:46;;;;;;;373.60;338.57;;;;;;;;;;5033069;28;20033;-69
2020/12/15 09:36:16;;;;;;;364.45;329.70;;;;;;;;;;5035683;28;20390;-69
2020/12/15 09:38:46;;;;;;;362.08;327.58;;;;;;;;;;5028732;28;20041;-69
2020/12/15 09:41:12;;;;;;;338.63;304.83;;;;;;;;;;5030470;28;20025;-68
2020/12/15 09:43:38;;;;;;;334.83;301.52;;;;;;;;;;5028323;28;20034;-69
2020/12/15 09:46:04;;;;;;;340.90;307.38;;;;;;;;;;5032804;28;20030;-69
2020/12/15 09:48:30;;;;;;;359.67;325.07;;;;;;;;;;5028955;28;20035;-69
2020/12/15 09:50:58;;;;;;;382.13;346.95;;;;;;;;;;5025766;28;20112;-69
2020/12/15 09:53:24;;;;;;;315.52;282.80;;;;;;;;;;5032710;28;20068;-69
2020/12/15 09:55:50;;;;;;;319.35;286.27;;;;;;;;;;5028418;28;20060;-69
2020/12/15 09:58:16;;;;;;;313.40;281.02;;;;;;;;;;5033789;28;20041;-69
2020/12/15 10:00:42;;;;;;;333.42;300.10;;;;;;;;;;5030894;28;20104;-70
2020/12/15 10:03:08;;;;;;;340.77;307.05;;;;;;;;;;5028653;28;20057;-69
2020/12/15 10:05:34;;;;;;;276.90;236.82;;;;;;;;;;5023644;28;20025;-70
2020/12/15 10:08:00;;;;;;;319.40;286.75;;;;;;;;;;5029231;28;20080;-69
2020/12/15 10:10:26;;;;;;;338.20;304.67;;;;;;;;;;5031039;28;20033;-70
2020/12/15 10:12:52;;;;;;;341.65;307.95;;;;;;;;;;5018468;28;20030;-69
2020/12/15 10:15:18;;;;;;;318.67;285.85;;;;;;;;;;5029697;28;20030;-70
2020/12/15 10:17:44;;;;;;;285.77;253.90;;;;;;;;;;5031043;28;20025;-70
2020/12/15 10:20:10;;;;;;;352.77;318.75;;;;;;;;;;5031338;28;20028;-69
2020/12/15 10:22:37;;;;;;;273.30;233.30;;;;;;;;;;5032172;28;20394;-70
2020/12/15 10:25:04;;;;;;;379.30;344.40;;;;;;;;;;5029147;28;20022;-69
2020/12/15 10:27:30;;;;;;;;;;;;;;;;;;5029514;28;20053;-69
2020/12/15 10:29:56;;;;;;;304.35;272.50;;;;;;;;;;5030721;28;19952;-70
2020/12/15 10:32:24;;;;;;;337.00;303.60;;;;;;;;;;5031430;28;20033;-67
2020/12/15 10:34:50;;;;;;;281.10;248.32;;;;;;;;;;5032529;28;20113;-68
2020/12/15 10:37:16;;;;;;;344.65;311.00;;;;;;;;;;5040952;28;20079;-69
2020/12/15 10:39:42;;;;;;;319.65;286.85;;;;;;;;;;5027251;28;20039;-69
2020/12/15 10:42:09;;;;;;;323.00;290.00;;;;;;;;;;5029720;28;20034;-68
2020/12/15 10:44:35;;;;;;;350.92;316.60;;;;;;;;;;5026487;28;20022;-68
2020/12/15 10:47:01;;;;;;;365.13;330.70;;;;;;;;;;5035824;28;20410;-69
2020/12/15 10:49:28;;;;;;;318.30;285.40;;;;;;;;;;5030286;28;20041;-69
2020/12/15 10:51:54;;;;;;;335.30;301.98;;;;;;;;;;5043820;28;20036;-68
2020/12/15 10:54:20;;;;;;;350.33;316.07;;;;;;;;;;5028849;28;20017;-69
2020/12/15 10:56:46;;;;;;;325.77;292.73;;;;;;;;;;5032078;28;20033;-69
2020/12/15 10:59:12;;;;;;;286.95;255.43;;;;;;;;;;5027726;28;20675;-68
2020/12/15 11:01:38;;;;;;;273.83;234.57;;;;;;;;;;5028919;28;20382;-69
2020/12/15 11:04:04;;;;;;;327.25;293.95;;;;;;;;;;5029005;28;20493;-69
2020/12/15 11:06:35;;;;;;;365.17;330.50;;;;;;;;;;5028769;28;20029;-69
2020/12/15 11:09:01;;;;;;;281.98;248.95;;;;;;;;;;5026609;28;20182;-70
2020/12/15 11:11:27;;;;;;;345.30;311.50;;;;;;;;;;5029578;28;20025;-70
2020/12/15 11:13:53;;;;;;;361.83;327.38;;;;;;;;;;5027239;28;20386;-70
2020/12/15 11:16:22;;;;;;;325.50;292.38;;;;;;;;;;5030302;28;20475;-69
2020/12/15 11:18:48;;;;;;;266.50;214.30;;;;;;;;;;5028268;28;20068;-68
2020/12/15 11:21:15;;;;;;;255.57;193.67;;;;;;;;;;5028014;28;20018;-68
2020/12/15 11:23:42;;;;;;;361.60;327.13;;;;;;;;;;5031175;28;20034;-69
2020/12/15 11:26:08;;;;;;;332.42;299.40;;;;;;;;;;5029385;28;20021;-68
2020/12/15 11:28:34;;;;;;;359.92;325.58;;;;;;;;;;5031281;28;20449;-69
2020/12/15 11:31:00;;;;;;;296.85;265.23;;;;;;;;;;5033317;28;20033;-68
2020/12/15 11:33:26;;;;;;;302.07;270.10;;;;;;;;;;5026304;28;20033;-68
2020/12/15 11:35:52;;;;;;;320.02;286.95;;;;;;;;;;5034497;28;20030;-69
2020/12/15 11:38:18;;;;;;;365.77;331.20;;;;;;;;;;5033182;28;20108;-69
2020/12/15 11:40:45;;;;;;;335.50;302.35;;;;;;;;;;5039130;28;20034;-69
2020/12/15 11:43:11;;;;;;;302.67;270.43;;;;;;;;;;5031654;28;20037;-69
2020/12/15 11:45:37;;;;;;;262.83;208.38;;;;;;;;;;5032113;28;20033;-69
2020/12/15 11:48:03;;;;;;;332.92;299.23;;;;;;;;;;5034110;28;20124;-69
2020/12/15 11:50:30;;;;;;;323.80;291.02;;;;;;;;;;5027344;28;20029;-70
2020/12/15 11:52:56;;;;;;;329.55;296.42;;;;;;;;;;5042413;28;20052;-69
2020/12/15 11:55:23;;;;;;;271.52;226.77;;;;;;;;;;5033712;28;20057;-70
2020/12/15 11:57:52;;;;;;;350.48;316.58;;;;;;;;;;5039101;28;20139;-70
2020/12/15 12:00:18;;;;;;;277.73;243.25;;;;;;;;;;5034673;28;20032;-70
2020/12/15 12:02:44;;;;;;;301.00;269.53;;;;;;;;;;5034400;28;20160;-70
2020/12/15 12:05:11;;;;;;;327.95;295.05;;;;;;;;;;5038003;28;20056;-71
2020/12/15 12:07:37;;;;;;;337.85;304.50;;;;;;;;;;5037501;28;20424;-69
2020/12/15 12:10:04;;;;;;;346.23;312.15;;;;;;;;;;5032555;28;20485;-70
2020/12/15 12:12:30;;;;;;;319.20;286.20;;;;;;;;;;5032459;28;20021;-68
2020/12/15 12:14:56;;;;;;;325.65;292.55;;;;;;;;;;5025896;28;20046;-68
2020/12/15 12:17:22;;;;;;;316.00;283.17;;;;;;;;;;5013276;28;20030;-69
2020/12/15 12:19:49;;;;;;;372.10;336.90;;;;;;;;;;5013680;28;20026;-69
2020/12/15 12:22:15;;;;;;;328.70;295.10;;;;;;;;;;5009532;28;20120;-69
2020/12/15 12:24:41;;;;;;;348.95;314.60;;;;;;;;;;5013376;28;20303;-69
2020/12/15 12:27:07;;;;;;;321.05;287.60;;;;;;;;;;5011900;28;20506;-69
2020/12/15 12:29:34;;;;;;;293.05;261.20;;;;;;;;;;5013798;28;20486;-70
2020/12/15 12:32:00;;;;;;;315.27;282.15;;;;;;;;;;5013851;28;20060;-68
2020/12/15 12:34:26;;;;;;;320.60;287.20;;;;;;;;;;5013835;28;20021;-69
2020/12/15 12:36:51;;;;;;;363.83;329.08;;;;;;;;;;5028183;28;20095;-70
2020/12/15 12:39:17;;;;;;;302.05;270.00;;;;;;;;;;5029019;28;20030;-70
2020/12/15 12:41:43;;;;;;;323.05;289.88;;;;;;;;;;5030217;28;20053;-70
2020/12/15 12:44:09;;;;;;;324.92;292.10;;;;;;;;;;5032918;28;20053;-69
2020/12/15 12:46:35;;;;;;;332.23;298.88;;;;;;;;;;5035047;28;20532;-69
2020/12/15 12:49:01;;;;;;;339.58;305.83;;;;;;;;;;5036687;28;20075;-70
2020/12/15 12:51:28;;;;;;;343.08;309.33;;;;;;;;;;5033695;28;20029;-70
2020/12/15 12:53:55;;;;;;;282.98;250.00;;;;;;;;;;5030839;28;20429;-70
2020/12/15 12:56:21;;;;;;;354.17;319.88;;;;;;;;;;5026959;28;20449;-69
2020/12/15 12:58:47;;;;;;;292.70;260.70;;;;;;;;;;5018377;28;20033;-70
2020/12/15 13:01:13;;;;;;;310.63;278.13;;;;;;;;;;5033726;28;20030;-71
2020/12/15 13:03:39;;;;;;;301.48;269.42;;;;;;;;;;5045541;28;20036;-70
2020/12/15 13:06:06;;;;;;;320.60;287.63;;;;;;;;;;5037637;28;20100;-70
2020/12/15 13:08:32;;;;;;;380.03;344.57;;;;;;;;;;5035675;28;20405;-70
2020/12/15 13:10:58;;;;;;;285.30;252.75;;;;;;;;;;5038864;28;20259;-71
2020/12/15 13:13:24;;;;;;;306.33;274.10;;;;;;;;;;5033095;28;20065;-71
2020/12/15 13:15:50;;;;;;;342.27;308.40;;;;;;;;;;5026375;28;20025;-70
2020/12/15 13:18:16;;;;;;;309.98;277.15;;;;;;;;;;5022701;28;20433;-69
2020/12/15 13:20:42;;;;;;;304.10;272.05;;;;;;;;;;5029785;28;20025;-70
2020/12/15 13:23:08;;;;;;;352.30;317.77;;;;;;;;;;5030630;28;20048;-70
2020/12/15 13:25:34;;;;;;;275.10;229.75;;;;;;;;;;5023872;28;20371;-70
2020/12/15 13:28:00;;;;;;;289.02;254.48;;;;;;;;;;5030272;28;20478;-69
2020/12/15 13:30:26;;;;;;;363.80;329.25;;;;;;;;;;5038136;28;20033;-71
2020/12/15 13:32:52;;;;;;;277.65;237.32;;;;;;;;;;5023411;28;20033;-70
2020/12/15 13:35:18;;;;;;;320.58;287.42;;;;;;;;;;5023813;28;20482;-71
2020/12/15 13:37:45;;;;;;;291.13;258.35;;;;;;;;;;5032700;28;20500;-71
2020/12/15 13:40:11;;;;;;;288.08;255.52;;;;;;;;;;5023622;28;20021;-70
2020/12/15 13:42:37;;;;;;;327.85;294.65;;;;;;;;;;5031881;28;20029;-70
2020/12/15 13:45:04;;;;;;;280.52;244.07;;;;;;;;;;5029830;28;20507;-71
2020/12/15 13:47:30;;;;;;;374.40;339.13;;;;;;;;;;5033206;28;20042;-70
2020/12/15 13:49:57;;;;;;;306.10;273.73;;;;;;;;;;5030159;28;20068;-70
2020/12/15 13:52:23;;;;;;;338.02;304.42;;;;;;;;;;5025077;28;20414;-70